Time,TemperatureF,DewpointF,PressureIn,WindDirection,WindDirectionDegrees,WindSpeedMPH,WindSpeedGustMPH,Humidity,HourlyPrecipIn,Conditions,Clouds,dailyrainin,SoftwareType,DateUTC
2013-03-28 00:00:00,27.0,21.9,30.60,NW,315,0.0,0.0,81,0.00,,,-99.99,Weather View 32 v60,2013-03-28 05:00:00,
2013-03-28 00:30:00,26.0,22.1,30.61,NNW,338,0.0,0.0,85,0.00,,,-99.99,Weather View 32 v60,2013-03-28 05:30:00,
2013-03-28 01:00:00,26.0,22.1,30.61,North,0,0.0,0.0,85,0.00,,,-99.99,Weather View 32 v60,2013-03-28 06:00:00,
2013-03-28 01:30:00,26.0,22.7,30.61,NNW,338,0.0,0.0,87,0.00,,,-99.99,Weather View 32 v60,2013-03-28 06:30:00,
2013-03-28 02:00:00,25.0,21.7,30.61,NNW,338,0.0,0.0,87,0.00,,,-99.99,Weather View 32 v60,2013-03-28 07:00:00,
2013-03-28 02:30:00,25.0,21.4,30.61,WNW,292,0.0,0.0,86,0.00,,,-99.99,Weather View 32 v60,2013-03-28 07:30:00,
2013-03-28 03:00:00,24.0,20.4,30.61,NNE,22,0.0,0.0,86,0.00,,,-99.99,Weather View 32 v60,2013-03-28 08:00:00,
2013-03-28 03:30:00,23.0,19.4,30.61,NE,45,0.0,0.0,86,0.00,,,-99.99,Weather View 32 v60,2013-03-28 08:30:00,
2013-03-28 04:00:00,23.0,19.4,30.61,NNE,22,0.0,0.0,86,0.00,,,-99.99,Weather View 32 v60,2013-03-28 09:00:00,
2013-03-28 04:30:00,23.0,19.4,30.61,North,0,0.0,0.0,86,0.00,,,-99.99,Weather View 32 v60,2013-03-28 09:30:00,
2013-03-28 05:00:00,24.0,20.4,30.61,NNE,22,0.0,0.0,86,0.00,,,-99.99,Weather View 32 v60,2013-03-28 10:00:00,
2013-03-28 05:30:00,24.0,20.1,30.62,North,0,0.0,0.0,85,0.00,,,-99.99,Weather View 32 v60,2013-03-28 10:30:00,
2013-03-28 06:00:00,22.0,18.2,30.62,NE,45,0.0,0.0,85,0.00,,,-99.99,Weather View 32 v60,2013-03-28 11:00:00,
2013-03-28 06:30:00,22.0,18.7,30.63,North,0,0.0,0.0,87,0.00,,,-99.99,Weather View 32 v60,2013-03-28 11:30:00,
2013-03-28 07:00:00,21.0,18.0,30.63,North,0,0.0,0.0,88,0.00,,,-99.99,Weather View 32 v60,2013-03-28 12:00:00,
2013-03-28 07:30:00,23.0,20.2,30.63,NNE,22,0.0,0.0,89,0.00,,,-99.99,Weather View 32 v60,2013-03-28 12:30:00,
2013-03-28 08:00:00,27.0,23.6,30.64,NE,45,0.0,0.0,87,0.00,,,-99.99,Weather View 32 v60,2013-03-28 13:00:00,
2013-03-28 08:30:00,32.0,26.5,30.64,NNE,22,0.0,0.0,80,0.00,,,-99.99,Weather View 32 v60,2013-03-28 13:30:00,
2013-03-28 09:00:00,37.0,28.5,30.64,NNE,22,0.0,0.0,71,0.00,,,-99.99,Weather View 32 v60,2013-03-28 14:00:00,
2013-03-28 09:30:00,38.0,25.7,30.63,NE,45,0.0,0.0,61,0.00,,,-99.99,Weather View 32 v60,2013-03-28 14:30:00,
2013-03-28 10:00:00,42.0,27.0,30.63,ESE,112,0.0,0.0,55,0.00,,,-99.99,Weather View 32 v60,2013-03-28 15:00:00,
2013-03-28 10:30:00,44.0,26.0,30.63,East,90,0.0,0.0,49,0.00,,,-99.99,Weather View 32 v60,2013-03-28 15:30:00,
2013-03-28 11:00:00,43.0,23.6,30.63,ENE,68,0.0,0.0,46,0.00,,,-99.99,Weather View 32 v60,2013-03-28 16:00:00,
2013-03-28 11:30:00,44.0,23.5,30.62,NNE,22,0.0,1.0,44,0.00,,,-99.99,Weather View 32 v60,2013-03-28 16:30:00,
2013-03-28 12:00:00,44.0,23.5,30.62,NE,45,0.0,3.0,44,0.00,,,-99.99,Weather View 32 v60,2013-03-28 17:00:00,
2013-03-28 12:30:00,45.0,24.4,30.61,ENE,68,0.0,4.0,44,0.00,,,-99.99,Weather View 32 v60,2013-03-28 17:30:00,
2013-03-28 13:00:00,46.0,23.6,30.61,ENE,68,0.0,4.0,41,0.00,,,-99.99,Weather View 32 v60,2013-03-28 18:00:00,
2013-03-28 13:30:00,47.0,23.3,30.60,NE,45,0.0,2.0,39,0.00,,,-99.99,Weather View 32 v60,2013-03-28 18:30:00,
2013-03-28 14:00:00,47.0,23.3,30.59,WSW,248,0.0,1.0,39,0.00,,,-99.99,Weather View 32 v60,2013-03-28 19:00:00,
2013-03-28 14:30:00,48.0,23.6,30.57,East,90,0.0,1.0,38,0.00,,,-99.99,Weather View 32 v60,2013-03-28 19:30:00,
2013-03-28 15:00:00,47.0,22.7,30.56,ENE,68,0.0,0.0,38,0.00,,,-99.99,Weather View 32 v60,2013-03-28 20:00:00,
2013-03-28 15:30:00,48.0,22.9,30.55,NNW,338,0.0,0.0,37,0.00,,,-99.99,Weather View 32 v60,2013-03-28 20:30:00,
2013-03-28 16:00:00,47.0,22.0,30.55,SSW,202,0.0,4.0,37,0.00,,,-99.99,Weather View 32 v60,2013-03-28 21:00:00,
2013-03-28 16:30:00,47.0,21.4,30.54,West,270,0.0,4.0,36,0.00,,,-99.99,Weather View 32 v60,2013-03-28 21:30:00,
2013-03-28 17:00:00,48.0,23.6,30.54,NW,315,0.0,0.0,38,0.00,,,-99.99,Weather View 32 v60,2013-03-28 22:00:00,
2013-03-28 17:30:00,46.0,21.8,30.54,NW,315,0.0,0.0,38,0.00,,,-99.99,Weather View 32 v60,2013-03-28 22:30:00,
2013-03-28 18:00:00,46.0,22.4,30.55,WNW,292,0.0,0.0,39,0.00,,,-99.99,Weather View 32 v60,2013-03-28 23:00:00,
2013-03-28 18:30:00,45.0,22.1,30.56,NW,315,0.0,0.0,40,0.00,,,-99.99,Weather View 32 v60,2013-03-28 23:30:00,
2013-03-28 19:00:00,43.0,22.0,30.57,NW,315,0.0,0.0,43,0.00,,,-99.99,Weather View 32 v60,2013-03-29 00:00:00,
2013-03-28 19:30:00,39.0,21.4,30.57,ENE,68,0.0,0.0,49,0.00,,,-99.99,Weather View 32 v60,2013-03-29 00:30:00,
2013-03-28 20:00:00,37.0,21.4,30.58,NE,45,0.0,0.0,53,0.00,,,-99.99,Weather View 32 v60,2013-03-29 01:00:00,
2013-03-28 20:30:00,35.0,21.7,30.58,NNE,22,0.0,0.0,58,0.00,,,-99.99,Weather View 32 v60,2013-03-29 01:30:00,
2013-03-28 21:00:00,33.0,21.0,30.59,WNW,292,0.0,0.0,61,0.00,,,-99.99,Weather View 32 v60,2013-03-29 02:00:00,
2013-03-28 21:30:00,31.0,20.6,30.59,NNW,338,0.0,0.0,65,0.00,,,-99.99,Weather View 32 v60,2013-03-29 02:30:00,
2013-03-28 22:00:00,30.0,21.1,30.59,NW,315,0.0,0.0,69,0.00,,,-99.99,Weather View 32 v60,2013-03-29 03:00:00,
2013-03-28 22:30:00,28.0,19.8,30.60,WNW,292,0.0,0.0,71,0.00,,,-99.99,Weather View 32 v60,2013-03-29 03:30:00,
2013-03-28 23:00:00,28.0,21.1,30.60,NW,315,0.0,0.0,75,0.00,,,-99.99,Weather View 32 v60,2013-03-29 04:00:00,
2013-03-28 23:30:00,28.0,21.1,30.60,NW,315,0.0,0.0,75,0.00,,,-99.99,Weather View 32 v60,2013-03-29 04:30:00,